Conway, Massachusetts
Current Conditions -  °F | °C
As of 12:52 AM on Thursday 23 Oct 2014 (Local Time) from KORE Reporting Station
Light Rain Light Rain  
Wind Chill: 43°   Ceiling: 1700
Heat Index: 48°   Visibility: 10mi
Dew Point: 45°   Wind: 10mph
Humidity: 89%   Direction: 350°N
Pressure: 29.85"   Gusts: NA
Location:  42.51°N, 72.7°W
Report Text: KORE 230452Z AUTO 35009KT 10SM -RA OVC017 09/07 A2985 RMK AO2 SLP110 P0022 T00890072 401110083
Loading
Personal Weather Stations






























Interactive Weather Map
Tropical Storm Tracking
New forecast layout! Learn more

10-Day Weather Forecast

Advertisements
Track Severe Weather on mobile